sensor_id;sensor_type;location;lat;lon;timestamp;temperature;humidity
6377;DHT22;3221;48.858;10.128;2022-11-20T00:01:27;5.80;99.90
6377;DHT22;3221;48.858;10.128;2022-11-20T00:03:55;5.80;99.90
6377;DHT22;3221;48.858;10.128;2022-11-20T00:06:23;5.80;99.90
6377;DHT22;3221;48.858;10.128;2022-11-20T00:08:51;5.80;99.90
6377;DHT22;3221;48.858;10.128;2022-11-20T00:11:20;5.80;99.90
6377;DHT22;3221;48.858;10.128;2022-11-20T00:13:50;5.80;99.90
6377;DHT22;3221;48.858;10.128;2022-11-20T00:16:19;5.80;99.90
6377;DHT22;3221;48.858;10.128;2022-11-20T00:18:47;5.80;99.90
6377;DHT22;3221;48.858;10.128;2022-11-20T00:21:16;5.80;99.90
6377;DHT22;3221;48.858;10.128;2022-11-20T00:23:44;5.90;99.90
6377;DHT22;3221;48.858;10.128;2022-11-20T00:26:14;5.90;99.90
6377;DHT22;3221;48.858;10.128;2022-11-20T00:28:42;5.70;99.90
6377;DHT22;3221;48.858;10.128;2022-11-20T00:31:12;5.90;99.90
6377;DHT22;3221;48.858;10.128;2022-11-20T00:33:41;5.90;99.90
6377;DHT22;3221;48.858;10.128;2022-11-20T00:36:10;5.80;99.90
6377;DHT22;3221;48.858;10.128;2022-11-20T00:38:37;5.80;99.90
6377;DHT22;3221;48.858;10.128;2022-11-20T00:41:07;5.80;99.90
6377;DHT22;3221;48.858;10.128;2022-11-20T00:43:35;5.70;99.90
6377;DHT22;3221;48.858;10.128;2022-11-20T00:46:15;5.80;99.90
6377;DHT22;3221;48.858;10.128;2022-11-20T00:48:43;5.80;99.90
6377;DHT22;3221;48.858;10.128;2022-11-20T00:51:18;5.70;99.90
6377;DHT22;3221;48.858;10.128;2022-11-20T00:53:45;5.80;99.90
6377;DHT22;3221;48.858;10.128;2022-11-20T00:56:16;5.80;99.90
6377;DHT22;3221;48.858;10.128;2022-11-20T00:58:44;5.70;99.90
6377;DHT22;3221;48.858;10.128;2022-11-20T01:01:14;5.70;99.90
6377;DHT22;3221;48.858;10.128;2022-11-20T01:03:44;5.70;99.90
6377;DHT22;3221;48.858;10.128;2022-11-20T01:06:17;5.60;99.90
6377;DHT22;3221;48.858;10.128;2022-11-20T01:08:45;5.70;99.90
6377;DHT22;3221;48.858;10.128;2022-11-20T01:11:24;5.70;99.90
6377;DHT22;3221;48.858;10.128;2022-11-20T01:13:52;5.60;99.90
6377;DHT22;3221;48.858;10.128;2022-11-20T01:16:28;5.80;99.90
6377;DHT22;3221;48.858;10.128;2022-11-20T01:18:58;5.70;99.90
6377;DHT22;3221;48.858;10.128;2022-11-20T01:21:29;5.80;99.90
6377;DHT22;3221;48.858;10.128;2022-11-20T01:23:56;5.70;99.90
6377;DHT22;3221;48.858;10.128;2022-11-20T01:26:26;5.80;99.90
6377;DHT22;3221;48.858;10.128;2022-11-20T01:28:55;5.70;99.90
6377;DHT22;3221;48.858;10.128;2022-11-20T01:31:25;5.60;99.90
6377;DHT22;3221;48.858;10.128;2022-11-20T01:33:54;5.60;99.90
6377;DHT22;3221;48.858;10.128;2022-11-20T01:36:23;5.60;99.90
6377;DHT22;3221;48.858;10.128;2022-11-20T01:38:56;5.80;99.90
6377;DHT22;3221;48.858;10.128;2022-11-20T01:41:24;5.60;99.90
6377;DHT22;3221;48.858;10.128;2022-11-20T01:44:12;5.70;99.90
6377;DHT22;3221;48.858;10.128;2022-11-20T01:47:02;5.60;99.90
6377;DHT22;3221;48.858;10.128;2022-11-20T01:49:43;5.70;99.90
6377;DHT22;3221;48.858;10.128;2022-11-20T01:52:26;5.70;99.90
6377;DHT22;3221;48.858;10.128;2022-11-20T01:55:13;5.70;99.90
6377;DHT22;3221;48.858;10.128;2022-11-20T01:57:41;5.60;99.90
6377;DHT22;3221;48.858;10.128;2022-11-20T02:00:13;5.50;99.90
6377;DHT22;3221;48.858;10.128;2022-11-20T02:02:46;5.60;99.90
6377;DHT22;3221;48.858;10.128;2022-11-20T02:08:21;5.70;99.90
6377;DHT22;3221;48.858;10.128;2022-11-20T02:10:50;5.60;99.90
6377;DHT22;3221;48.858;10.128;2022-11-20T02:13:17;5.50;99.90
6377;DHT22;3221;48.858;10.128;2022-11-20T02:16:03;5.60;99.90
6377;DHT22;3221;48.858;10.128;2022-11-20T02:18:31;5.60;99.90
6377;DHT22;3221;48.858;10.128;2022-11-20T02:21:21;5.60;99.90
6377;DHT22;3221;48.858;10.128;2022-11-20T02:29:10;5.60;99.90
6377;DHT22;3221;48.858;10.128;2022-11-20T02:31:40;5.60;99.90
6377;DHT22;3221;48.858;10.128;2022-11-20T02:34:08;5.50;99.90
6377;DHT22;3221;48.858;10.128;2022-11-20T02:36:36;5.60;99.90
6377;DHT22;3221;48.858;10.128;2022-11-20T02:39:04;5.70;99.90
6377;DHT22;3221;48.858;10.128;2022-11-20T02:41:34;5.50;99.90
6377;DHT22;3221;48.858;10.128;2022-11-20T02:44:02;5.50;99.90
6377;DHT22;3221;48.858;10.128;2022-11-20T02:46:29;5.60;99.90
6377;DHT22;3221;48.858;10.128;2022-11-20T02:48:56;5.60;99.90
6377;DHT22;3221;48.858;10.128;2022-11-20T02:51:23;5.60;99.90
6377;DHT22;3221;48.858;10.128;2022-11-20T02:53:51;5.60;99.90
6377;DHT22;3221;48.858;10.128;2022-11-20T02:56:18;5.50;99.90
6377;DHT22;3221;48.858;10.128;2022-11-20T02:58:45;5.50;99.90
6377;DHT22;3221;48.858;10.128;2022-11-20T03:01:12;5.50;99.90
6377;DHT22;3221;48.858;10.128;2022-11-20T03:03:39;5.60;99.90
6377;DHT22;3221;48.858;10.128;2022-11-20T03:06:06;5.50;99.90
6377;DHT22;3221;48.858;10.128;2022-11-20T03:08:33;5.50;99.90
6377;DHT22;3221;48.858;10.128;2022-11-20T03:11:05;5.60;99.90
6377;DHT22;3221;48.858;10.128;2022-11-20T03:13:33;5.50;99.90
6377;DHT22;3221;48.858;10.128;2022-11-20T03:16:15;5.40;99.90
6377;DHT22;3221;48.858;10.128;2022-11-20T03:18:43;5.40;99.90
6377;DHT22;3221;48.858;10.128;2022-11-20T03:21:11;5.60;99.90
6377;DHT22;3221;48.858;10.128;2022-11-20T03:23:39;5.40;99.90
6377;DHT22;3221;48.858;10.128;2022-11-20T03:26:23;5.50;99.90
6377;DHT22;3221;48.858;10.128;2022-11-20T03:28:53;5.40;99.90
6377;DHT22;3221;48.858;10.128;2022-11-20T03:31:22;5.30;99.90
6377;DHT22;3221;48.858;10.128;2022-11-20T03:33:50;5.50;99.90
6377;DHT22;3221;48.858;10.128;2022-11-20T03:36:19;5.40;99.90
6377;DHT22;3221;48.858;10.128;2022-11-20T03:38:47;5.40;99.90
6377;DHT22;3221;48.858;10.128;2022-11-20T03:41:17;5.40;99.90
6377;DHT22;3221;48.858;10.128;2022-11-20T03:43:53;5.40;99.90
6377;DHT22;3221;48.858;10.128;2022-11-20T03:46:20;5.40;99.90
6377;DHT22;3221;48.858;10.128;2022-11-20T03:48:48;5.50;99.90
6377;DHT22;3221;48.858;10.128;2022-11-20T03:51:20;5.50;99.90
6377;DHT22;3221;48.858;10.128;2022-11-20T03:53:49;5.50;99.90
6377;DHT22;3221;48.858;10.128;2022-11-20T03:56:18;5.40;99.90
6377;DHT22;3221;48.858;10.128;2022-11-20T03:58:45;5.40;99.90
6377;DHT22;3221;48.858;10.128;2022-11-20T04:01:27;5.40;99.90
6377;DHT22;3221;48.858;10.128;2022-11-20T04:03:56;5.40;99.90
6377;DHT22;3221;48.858;10.128;2022-11-20T04:06:29;5.30;99.90
6377;DHT22;3221;48.858;10.128;2022-11-20T04:08:57;5.40;99.90
6377;DHT22;3221;48.858;10.128;2022-11-20T04:11:32;5.30;99.90
6377;DHT22;3221;48.858;10.128;2022-11-20T04:14:01;5.40;99.90
6377;DHT22;3221;48.858;10.128;2022-11-20T04:16:31;5.30;99.90
6377;DHT22;3221;48.858;10.128;2022-11-20T04:19:01;5.30;99.90
6377;DHT22;3221;48.858;10.128;2022-11-20T04:21:28;5.50;99.90
6377;DHT22;3221;48.858;10.128;2022-11-20T04:23:56;5.40;99.90
6377;DHT22;3221;48.858;10.128;2022-11-20T04:26:25;5.40;99.90
6377;DHT22;3221;48.858;10.128;2022-11-20T04:28:53;5.30;99.90
6377;DHT22;3221;48.858;10.128;2022-11-20T04:31:25;5.40;99.90
6377;DHT22;3221;48.858;10.128;2022-11-20T04:33:53;5.30;99.90
6377;DHT22;3221;48.858;10.128;2022-11-20T04:36:24;5.50;99.90
6377;DHT22;3221;48.858;10.128;2022-11-20T04:38:56;5.30;99.90
6377;DHT22;3221;48.858;10.128;2022-11-20T04:41:32;5.40;99.90
6377;DHT22;3221;48.858;10.128;2022-11-20T04:44:01;5.40;99.90
6377;DHT22;3221;48.858;10.128;2022-11-20T04:46:34;5.50;99.90
6377;DHT22;3221;48.858;10.128;2022-11-20T04:49:01;5.30;99.90
6377;DHT22;3221;48.858;10.128;2022-11-20T04:51:28;5.30;99.90
6377;DHT22;3221;48.858;10.128;2022-11-20T04:53:55;5.20;99.90
6377;DHT22;3221;48.858;10.128;2022-11-20T04:56:23;5.20;99.90
6377;DHT22;3221;48.858;10.128;2022-11-20T04:58:50;5.20;99.90
6377;DHT22;3221;48.858;10.128;2022-11-20T05:01:20;5.20;99.90
6377;DHT22;3221;48.858;10.128;2022-11-20T05:03:47;5.20;99.90
6377;DHT22;3221;48.858;10.128;2022-11-20T05:06:17;5.20;99.90
6377;DHT22;3221;48.858;10.128;2022-11-20T05:08:44;5.20;99.90
6377;DHT22;3221;48.858;10.128;2022-11-20T05:11:13;5.20;99.90
6377;DHT22;3221;48.858;10.128;2022-11-20T05:13:41;5.20;99.90
6377;DHT22;3221;48.858;10.128;2022-11-20T05:16:10;5.30;99.90
6377;DHT22;3221;48.858;10.128;2022-11-20T05:18:39;5.10;99.90
6377;DHT22;3221;48.858;10.128;2022-11-20T05:21:06;5.20;99.90
6377;DHT22;3221;48.858;10.128;2022-11-20T05:23:34;5.40;99.90
6377;DHT22;3221;48.858;10.128;2022-11-20T05:26:02;5.30;99.90
6377;DHT22;3221;48.858;10.128;2022-11-20T05:28:34;5.30;99.90
6377;DHT22;3221;48.858;10.128;2022-11-20T05:31:22;5.40;99.90
6377;DHT22;3221;48.858;10.128;2022-11-20T05:33:55;5.40;99.90
6377;DHT22;3221;48.858;10.128;2022-11-20T05:36:22;5.20;99.90
6377;DHT22;3221;48.858;10.128;2022-11-20T05:38:51;5.20;99.90
6377;DHT22;3221;48.858;10.128;2022-11-20T05:41:25;5.30;99.90
6377;DHT22;3221;48.858;10.128;2022-11-20T05:43:52;5.30;99.90
6377;DHT22;3221;48.858;10.128;2022-11-20T05:46:21;5.30;99.90
6377;DHT22;3221;48.858;10.128;2022-11-20T05:48:57;5.20;99.90
6377;DHT22;3221;48.858;10.128;2022-11-20T05:51:25;5.30;99.90
6377;DHT22;3221;48.858;10.128;2022-11-20T05:53:52;5.20;99.90
6377;DHT22;3221;48.858;10.128;2022-11-20T05:56:20;5.30;99.90
6377;DHT22;3221;48.858;10.128;2022-11-20T05:58:48;5.20;99.90
6377;DHT22;3221;48.858;10.128;2022-11-20T06:01:20;5.20;99.90
6377;DHT22;3221;48.858;10.128;2022-11-20T06:03:47;5.30;99.90
6377;DHT22;3221;48.858;10.128;2022-11-20T06:06:18;5.20;99.90
6377;DHT22;3221;48.858;10.128;2022-11-20T06:08:46;5.30;99.90
6377;DHT22;3221;48.858;10.128;2022-11-20T06:11:14;5.30;99.90
6377;DHT22;3221;48.858;10.128;2022-11-20T06:13:42;5.10;99.90
6377;DHT22;3221;48.858;10.128;2022-11-20T06:16:10;5.20;99.90
6377;DHT22;3221;48.858;10.128;2022-11-20T06:18:38;5.30;99.90
6377;DHT22;3221;48.858;10.128;2022-11-20T06:21:09;5.20;99.90
6377;DHT22;3221;48.858;10.128;2022-11-20T06:23:37;5.20;99.90
6377;DHT22;3221;48.858;10.128;2022-11-20T06:26:10;5.30;99.90
6377;DHT22;3221;48.858;10.128;2022-11-20T06:28:37;5.20;99.90
6377;DHT22;3221;48.858;10.128;2022-11-20T06:31:05;5.00;99.90
6377;DHT22;3221;48.858;10.128;2022-11-20T06:33:33;5.10;99.90
6377;DHT22;3221;48.858;10.128;2022-11-20T06:36:01;5.20;99.90
6377;DHT22;3221;48.858;10.128;2022-11-20T06:38:36;5.20;99.90
6377;DHT22;3221;48.858;10.128;2022-11-20T06:41:05;5.20;99.90
6377;DHT22;3221;48.858;10.128;2022-11-20T06:43:32;5.20;99.90
6377;DHT22;3221;48.858;10.128;2022-11-20T06:45:59;5.20;99.90
6377;DHT22;3221;48.858;10.128;2022-11-20T06:48:27;5.00;99.90
6377;DHT22;3221;48.858;10.128;2022-11-20T06:50:55;5.10;99.90
6377;DHT22;3221;48.858;10.128;2022-11-20T06:53:22;5.00;99.90
6377;DHT22;3221;48.858;10.128;2022-11-20T06:55:52;5.20;99.90
6377;DHT22;3221;48.858;10.128;2022-11-20T06:58:19;5.40;99.90
6377;DHT22;3221;48.858;10.128;2022-11-20T07:00:46;5.10;99.90
6377;DHT22;3221;48.858;10.128;2022-11-20T07:03:13;5.00;99.90
6377;DHT22;3221;48.858;10.128;2022-11-20T07:05:40;5.10;99.90
6377;DHT22;3221;48.858;10.128;2022-11-20T07:08:09;5.20;99.90
6377;DHT22;3221;48.858;10.128;2022-11-20T07:10:36;5.20;99.90
6377;DHT22;3221;48.858;10.128;2022-11-20T07:13:03;5.10;99.90
6377;DHT22;3221;48.858;10.128;2022-11-20T07:15:30;5.40;99.90
6377;DHT22;3221;48.858;10.128;2022-11-20T07:18:00;5.10;99.90
6377;DHT22;3221;48.858;10.128;2022-11-20T07:20:27;5.10;99.90
6377;DHT22;3221;48.858;10.128;2022-11-20T07:22:55;5.10;99.90
6377;DHT22;3221;48.858;10.128;2022-11-20T07:25:24;5.20;99.90
6377;DHT22;3221;48.858;10.128;2022-11-20T07:27:51;5.10;99.90
6377;DHT22;3221;48.858;10.128;2022-11-20T07:30:18;5.20;99.90
6377;DHT22;3221;48.858;10.128;2022-11-20T07:32:52;5.20;99.90
6377;DHT22;3221;48.858;10.128;2022-11-20T07:35:20;5.20;99.90
6377;DHT22;3221;48.858;10.128;2022-11-20T07:37:47;5.20;99.90
6377;DHT22;3221;48.858;10.128;2022-11-20T07:40:16;5.20;99.90
6377;DHT22;3221;48.858;10.128;2022-11-20T07:42:54;5.10;99.90
6377;DHT22;3221;48.858;10.128;2022-11-20T07:45:23;5.10;99.90
6377;DHT22;3221;48.858;10.128;2022-11-20T07:47:51;5.10;99.90
6377;DHT22;3221;48.858;10.128;2022-11-20T07:50:19;5.10;99.90
6377;DHT22;3221;48.858;10.128;2022-11-20T07:52:46;5.20;99.90
6377;DHT22;3221;48.858;10.128;2022-11-20T07:55:13;5.30;99.90
6377;DHT22;3221;48.858;10.128;2022-11-20T07:57:41;5.20;99.90
6377;DHT22;3221;48.858;10.128;2022-11-20T08:00:09;5.20;99.90
6377;DHT22;3221;48.858;10.128;2022-11-20T08:02:40;5.20;99.90
6377;DHT22;3221;48.858;10.128;2022-11-20T08:05:08;5.10;99.90
6377;DHT22;3221;48.858;10.128;2022-11-20T08:07:40;5.10;99.90
6377;DHT22;3221;48.858;10.128;2022-11-20T08:10:09;5.10;99.90
6377;DHT22;3221;48.858;10.128;2022-11-20T08:12:42;5.10;99.90
6377;DHT22;3221;48.858;10.128;2022-11-20T08:15:28;5.20;99.90
6377;DHT22;3221;48.858;10.128;2022-11-20T08:18:09;5.20;99.90
6377;DHT22;3221;48.858;10.128;2022-11-20T08:21:03;5.20;99.90
6377;DHT22;3221;48.858;10.128;2022-11-20T08:23:30;5.10;99.90
6377;DHT22;3221;48.858;10.128;2022-11-20T08:25:57;5.10;99.90
6377;DHT22;3221;48.858;10.128;2022-11-20T08:28:24;5.10;99.90
6377;DHT22;3221;48.858;10.128;2022-11-20T08:30:59;5.10;99.90
6377;DHT22;3221;48.858;10.128;2022-11-20T08:33:27;5.10;99.90
6377;DHT22;3221;48.858;10.128;2022-11-20T08:36:01;5.10;99.90
6377;DHT22;3221;48.858;10.128;2022-11-20T08:38:29;5.10;99.90
6377;DHT22;3221;48.858;10.128;2022-11-20T08:40:57;5.20;99.90
6377;DHT22;3221;48.858;10.128;2022-11-20T08:43:43;5.10;99.90
6377;DHT22;3221;48.858;10.128;2022-11-20T08:46:10;5.20;99.90
6377;DHT22;3221;48.858;10.128;2022-11-20T08:48:37;5.10;99.90
6377;DHT22;3221;48.858;10.128;2022-11-20T08:51:04;5.10;99.90
6377;DHT22;3221;48.858;10.128;2022-11-20T08:53:31;5.10;99.90
6377;DHT22;3221;48.858;10.128;2022-11-20T08:55:58;5.20;99.90
6377;DHT22;3221;48.858;10.128;2022-11-20T08:58:26;5.20;99.90
6377;DHT22;3221;48.858;10.128;2022-11-20T09:00:53;5.30;99.90
6377;DHT22;3221;48.858;10.128;2022-11-20T09:03:20;5.30;99.90
6377;DHT22;3221;48.858;10.128;2022-11-20T09:05:47;5.20;99.90
6377;DHT22;3221;48.858;10.128;2022-11-20T09:08:14;5.20;99.90
6377;DHT22;3221;48.858;10.128;2022-11-20T09:10:41;5.10;99.90
6377;DHT22;3221;48.858;10.128;2022-11-20T09:13:08;5.20;99.90
6377;DHT22;3221;48.858;10.128;2022-11-20T09:15:35;5.20;99.90
6377;DHT22;3221;48.858;10.128;2022-11-20T09:18:03;5.20;99.90
6377;DHT22;3221;48.858;10.128;2022-11-20T09:20:31;5.20;99.90
6377;DHT22;3221;48.858;10.128;2022-11-20T09:22:58;5.30;99.90
6377;DHT22;3221;48.858;10.128;2022-11-20T09:25:25;5.30;99.90
6377;DHT22;3221;48.858;10.128;2022-11-20T09:27:58;5.40;99.90
6377;DHT22;3221;48.858;10.128;2022-11-20T09:30:26;5.20;99.90
6377;DHT22;3221;48.858;10.128;2022-11-20T09:32:53;5.20;99.90
6377;DHT22;3221;48.858;10.128;2022-11-20T09:35:20;5.20;99.90
6377;DHT22;3221;48.858;10.128;2022-11-20T09:37:47;5.40;99.90
6377;DHT22;3221;48.858;10.128;2022-11-20T09:40:26;5.20;99.90
6377;DHT22;3221;48.858;10.128;2022-11-20T09:43:03;5.20;99.90
6377;DHT22;3221;48.858;10.128;2022-11-20T09:48:39;5.20;99.90
6377;DHT22;3221;48.858;10.128;2022-11-20T09:51:12;5.20;99.90
6377;DHT22;3221;48.858;10.128;2022-11-20T09:54:05;5.20;99.90
6377;DHT22;3221;48.858;10.128;2022-11-20T09:56:38;5.20;99.90
6377;DHT22;3221;48.858;10.128;2022-11-20T09:59:07;5.30;99.90
6377;DHT22;3221;48.858;10.128;2022-11-20T10:01:36;5.20;99.90
6377;DHT22;3221;48.858;10.128;2022-11-20T10:04:10;5.30;99.90
6377;DHT22;3221;48.858;10.128;2022-11-20T10:06:42;5.20;99.90
6377;DHT22;3221;48.858;10.128;2022-11-20T10:12:12;5.10;99.90
6377;DHT22;3221;48.858;10.128;2022-11-20T10:25:33;5.10;99.90
6377;DHT22;3221;48.858;10.128;2022-11-20T10:28:10;5.10;99.90
6377;DHT22;3221;48.858;10.128;2022-11-20T10:30:42;5.00;99.90
6377;DHT22;3221;48.858;10.128;2022-11-20T10:33:23;5.20;99.90
6377;DHT22;3221;48.858;10.128;2022-11-20T10:38:43;5.10;99.90
6377;DHT22;3221;48.858;10.128;2022-11-20T10:41:21;5.10;99.90
6377;DHT22;3221;48.858;10.128;2022-11-20T10:44:09;5.10;99.90
6377;DHT22;3221;48.858;10.128;2022-11-20T10:46:43;5.10;99.90
6377;DHT22;3221;48.858;10.128;2022-11-20T10:49:16;5.10;99.90
6377;DHT22;3221;48.858;10.128;2022-11-20T10:52:09;5.10;99.90
6377;DHT22;3221;48.858;10.128;2022-11-20T10:54:43;5.10;99.90
6377;DHT22;3221;48.858;10.128;2022-11-20T11:00:06;5.10;99.90
6377;DHT22;3221;48.858;10.128;2022-11-20T11:08:00;5.10;99.90
6377;DHT22;3221;48.858;10.128;2022-11-20T11:10:39;5.00;99.90
6377;DHT22;3221;48.858;10.128;2022-11-20T11:13:20;5.10;99.90
6377;DHT22;3221;48.858;10.128;2022-11-20T11:15:47;5.10;99.90
6377;DHT22;3221;48.858;10.128;2022-11-20T11:18:23;5.10;99.90
6377;DHT22;3221;48.858;10.128;2022-11-20T11:20:52;5.10;99.90
6377;DHT22;3221;48.858;10.128;2022-11-20T11:23:38;5.10;99.90
6377;DHT22;3221;48.858;10.128;2022-11-20T11:26:18;5.20;99.90
6377;DHT22;3221;48.858;10.128;2022-11-20T11:29:02;5.20;99.90
6377;DHT22;3221;48.858;10.128;2022-11-20T11:31:32;5.20;99.90
6377;DHT22;3221;48.858;10.128;2022-11-20T11:34:14;5.10;99.90
6377;DHT22;3221;48.858;10.128;2022-11-20T11:36:48;5.20;99.90
6377;DHT22;3221;48.858;10.128;2022-11-20T11:39:17;5.20;99.90
6377;DHT22;3221;48.858;10.128;2022-11-20T11:41:45;5.20;99.90
6377;DHT22;3221;48.858;10.128;2022-11-20T11:44:28;5.10;99.90
6377;DHT22;3221;48.858;10.128;2022-11-20T11:47:25;5.20;99.90
6377;DHT22;3221;48.858;10.128;2022-11-20T11:53:14;5.10;99.90
6377;DHT22;3221;48.858;10.128;2022-11-20T11:56:08;5.10;99.90
6377;DHT22;3221;48.858;10.128;2022-11-20T11:58:52;5.10;99.90
6377;DHT22;3221;48.858;10.128;2022-11-20T12:01:35;5.10;99.90
6377;DHT22;3221;48.858;10.128;2022-11-20T12:10:40;5.00;99.90
6377;DHT22;3221;48.858;10.128;2022-11-20T12:15:44;5.10;99.90
6377;DHT22;3221;48.858;10.128;2022-11-20T12:18:20;5.10;99.90
6377;DHT22;3221;48.858;10.128;2022-11-20T12:21:17;5.10;99.90
6377;DHT22;3221;48.858;10.128;2022-11-20T12:26:49;5.20;99.90
6377;DHT22;3221;48.858;10.128;2022-11-20T12:32:03;5.00;99.90
6377;DHT22;3221;48.858;10.128;2022-11-20T12:37:30;5.00;99.90
6377;DHT22;3221;48.858;10.128;2022-11-20T12:43:21;5.00;99.90
6377;DHT22;3221;48.858;10.128;2022-11-20T12:49:19;5.00;99.90
6377;DHT22;3221;48.858;10.128;2022-11-20T12:52:05;5.10;99.90
6377;DHT22;3221;48.858;10.128;2022-11-20T12:57:24;5.10;99.90
6377;DHT22;3221;48.858;10.128;2022-11-20T13:00:11;5.20;99.90
6377;DHT22;3221;48.858;10.128;2022-11-20T13:08:51;5.30;99.90
6377;DHT22;3221;48.858;10.128;2022-11-20T13:16:55;5.40;99.90
6377;DHT22;3221;48.858;10.128;2022-11-20T13:19:31;5.40;99.90
6377;DHT22;3221;48.858;10.128;2022-11-20T13:21:59;5.50;99.90
6377;DHT22;3221;48.858;10.128;2022-11-20T13:24:28;5.40;99.90
6377;DHT22;3221;48.858;10.128;2022-11-20T13:27:17;5.40;99.90
6377;DHT22;3221;48.858;10.128;2022-11-20T13:29:58;5.30;99.90
6377;DHT22;3221;48.858;10.128;2022-11-20T13:32:26;5.30;99.90
6377;DHT22;3221;48.858;10.128;2022-11-20T13:35:04;5.50;99.90
6377;DHT22;3221;48.858;10.128;2022-11-20T13:37:36;5.40;99.90
6377;DHT22;3221;48.858;10.128;2022-11-20T13:45:59;5.40;99.90
6377;DHT22;3221;48.858;10.128;2022-11-20T13:48:44;5.40;99.90
6377;DHT22;3221;48.858;10.128;2022-11-20T13:54:01;5.40;99.90
6377;DHT22;3221;48.858;10.128;2022-11-20T13:59:50;5.40;99.90
6377;DHT22;3221;48.858;10.128;2022-11-20T14:02:22;5.40;99.90
6377;DHT22;3221;48.858;10.128;2022-11-20T14:04:52;5.40;99.90
6377;DHT22;3221;48.858;10.128;2022-11-20T14:07:24;5.40;99.90
6377;DHT22;3221;48.858;10.128;2022-11-20T14:09:55;5.30;99.90
6377;DHT22;3221;48.858;10.128;2022-11-20T14:12:28;5.50;99.90
6377;DHT22;3221;48.858;10.128;2022-11-20T14:14:56;5.50;99.90
6377;DHT22;3221;48.858;10.128;2022-11-20T14:17:32;5.40;99.90
6377;DHT22;3221;48.858;10.128;2022-11-20T14:20:03;5.30;99.90
6377;DHT22;3221;48.858;10.128;2022-11-20T14:22:31;5.40;99.90
6377;DHT22;3221;48.858;10.128;2022-11-20T14:25:06;5.40;99.90
6377;DHT22;3221;48.858;10.128;2022-11-20T14:27:37;5.40;99.90
6377;DHT22;3221;48.858;10.128;2022-11-20T14:30:12;5.20;99.90
6377;DHT22;3221;48.858;10.128;2022-11-20T14:32:41;5.40;99.90
6377;DHT22;3221;48.858;10.128;2022-11-20T14:35:13;5.50;99.90
6377;DHT22;3221;48.858;10.128;2022-11-20T14:37:41;5.50;99.90
6377;DHT22;3221;48.858;10.128;2022-11-20T14:40:46;5.40;99.90
6377;DHT22;3221;48.858;10.128;2022-11-20T14:43:18;5.40;99.90
6377;DHT22;3221;48.858;10.128;2022-11-20T14:45:51;5.40;99.90
6377;DHT22;3221;48.858;10.128;2022-11-20T14:48:40;5.40;99.90
6377;DHT22;3221;48.858;10.128;2022-11-20T14:51:10;5.50;99.90
6377;DHT22;3221;48.858;10.128;2022-11-20T14:53:37;5.40;99.90
6377;DHT22;3221;48.858;10.128;2022-11-20T14:56:04;5.50;99.90
6377;DHT22;3221;48.858;10.128;2022-11-20T14:58:32;5.30;99.90
6377;DHT22;3221;48.858;10.128;2022-11-20T15:01:05;5.40;99.90
6377;DHT22;3221;48.858;10.128;2022-11-20T15:03:37;5.40;99.90
6377;DHT22;3221;48.858;10.128;2022-11-20T15:06:06;5.50;99.90
6377;DHT22;3221;48.858;10.128;2022-11-20T15:08:34;5.40;99.90
6377;DHT22;3221;48.858;10.128;2022-11-20T15:11:02;5.40;99.90
6377;DHT22;3221;48.858;10.128;2022-11-20T15:13:36;5.40;99.90
6377;DHT22;3221;48.858;10.128;2022-11-20T15:16:11;5.30;99.90
6377;DHT22;3221;48.858;10.128;2022-11-20T15:18:41;5.30;99.90
6377;DHT22;3221;48.858;10.128;2022-11-20T15:21:13;5.30;99.90
6377;DHT22;3221;48.858;10.128;2022-11-20T15:23:40;5.30;99.90
6377;DHT22;3221;48.858;10.128;2022-11-20T15:26:08;5.40;99.90
6377;DHT22;3221;48.858;10.128;2022-11-20T15:28:44;5.40;99.90
6377;DHT22;3221;48.858;10.128;2022-11-20T15:31:13;5.40;99.90
6377;DHT22;3221;48.858;10.128;2022-11-20T15:33:41;5.30;99.90
6377;DHT22;3221;48.858;10.128;2022-11-20T15:36:08;5.20;99.90
6377;DHT22;3221;48.858;10.128;2022-11-20T15:38:35;5.20;99.90
6377;DHT22;3221;48.858;10.128;2022-11-20T15:41:02;5.20;99.90
6377;DHT22;3221;48.858;10.128;2022-11-20T15:43:29;5.00;99.90
6377;DHT22;3221;48.858;10.128;2022-11-20T15:46:11;5.10;99.90
6377;DHT22;3221;48.858;10.128;2022-11-20T15:48:42;5.10;99.90
6377;DHT22;3221;48.858;10.128;2022-11-20T15:51:31;5.10;99.90
6377;DHT22;3221;48.858;10.128;2022-11-20T15:54:00;5.20;99.90
6377;DHT22;3221;48.858;10.128;2022-11-20T15:56:28;5.10;99.90
6377;DHT22;3221;48.858;10.128;2022-11-20T15:58:55;5.20;99.90
6377;DHT22;3221;48.858;10.128;2022-11-20T16:01:22;5.20;99.90
6377;DHT22;3221;48.858;10.128;2022-11-20T16:03:49;5.20;99.90
6377;DHT22;3221;48.858;10.128;2022-11-20T16:06:16;5.10;99.90
6377;DHT22;3221;48.858;10.128;2022-11-20T16:08:43;5.20;99.90
6377;DHT22;3221;48.858;10.128;2022-11-20T16:11:12;5.20;99.90
6377;DHT22;3221;48.858;10.128;2022-11-20T16:13:40;5.20;99.90
6377;DHT22;3221;48.858;10.128;2022-11-20T16:16:29;5.20;99.90
6377;DHT22;3221;48.858;10.128;2022-11-20T16:18:58;5.20;99.90
6377;DHT22;3221;48.858;10.128;2022-11-20T16:21:25;5.10;99.90
6377;DHT22;3221;48.858;10.128;2022-11-20T16:24:03;5.20;99.90
6377;DHT22;3221;48.858;10.128;2022-11-20T16:26:31;5.20;99.90
6377;DHT22;3221;48.858;10.128;2022-11-20T16:29:03;5.10;99.90
6377;DHT22;3221;48.858;10.128;2022-11-20T16:31:30;5.10;99.90
6377;DHT22;3221;48.858;10.128;2022-11-20T16:33:59;5.00;99.90
6377;DHT22;3221;48.858;10.128;2022-11-20T16:36:27;5.10;99.90
6377;DHT22;3221;48.858;10.128;2022-11-20T16:38:56;5.30;99.90
6377;DHT22;3221;48.858;10.128;2022-11-20T16:41:25;5.20;99.90
6377;DHT22;3221;48.858;10.128;2022-11-20T16:43:57;5.10;99.90
6377;DHT22;3221;48.858;10.128;2022-11-20T16:46:26;5.00;99.90
6377;DHT22;3221;48.858;10.128;2022-11-20T16:49:05;5.00;99.90
6377;DHT22;3221;48.858;10.128;2022-11-20T16:51:35;5.00;99.90
6377;DHT22;3221;48.858;10.128;2022-11-20T16:54:04;5.00;99.90
6377;DHT22;3221;48.858;10.128;2022-11-20T16:56:31;5.10;99.90
6377;DHT22;3221;48.858;10.128;2022-11-20T16:58:59;5.20;99.90
6377;DHT22;3221;48.858;10.128;2022-11-20T17:01:27;5.00;99.90
6377;DHT22;3221;48.858;10.128;2022-11-20T17:03:59;4.90;99.90
6377;DHT22;3221;48.858;10.128;2022-11-20T17:06:32;5.00;99.90
6377;DHT22;3221;48.858;10.128;2022-11-20T17:08:59;5.00;99.90
6377;DHT22;3221;48.858;10.128;2022-11-20T17:11:26;4.90;99.90
6377;DHT22;3221;48.858;10.128;2022-11-20T17:13:55;4.90;99.90
6377;DHT22;3221;48.858;10.128;2022-11-20T17:16:23;5.00;99.90
6377;DHT22;3221;48.858;10.128;2022-11-20T17:18:50;5.00;99.90
6377;DHT22;3221;48.858;10.128;2022-11-20T17:21:18;4.90;99.90
6377;DHT22;3221;48.858;10.128;2022-11-20T17:23:45;4.90;99.90
6377;DHT22;3221;48.858;10.128;2022-11-20T17:26:14;4.90;99.90
6377;DHT22;3221;48.858;10.128;2022-11-20T17:28:45;4.90;99.90
6377;DHT22;3221;48.858;10.128;2022-11-20T17:31:14;4.90;99.90
6377;DHT22;3221;48.858;10.128;2022-11-20T17:33:43;4.80;99.90
6377;DHT22;3221;48.858;10.128;2022-11-20T17:36:12;4.80;99.90
6377;DHT22;3221;48.858;10.128;2022-11-20T17:38:39;4.90;99.90
6377;DHT22;3221;48.858;10.128;2022-11-20T17:41:11;5.00;99.90
6377;DHT22;3221;48.858;10.128;2022-11-20T17:43:39;4.80;99.90
6377;DHT22;3221;48.858;10.128;2022-11-20T17:46:08;4.80;99.90
6377;DHT22;3221;48.858;10.128;2022-11-20T17:48:36;4.80;99.90
6377;DHT22;3221;48.858;10.128;2022-11-20T17:51:04;4.90;99.90
6377;DHT22;3221;48.858;10.128;2022-11-20T17:53:34;4.90;99.90
6377;DHT22;3221;48.858;10.128;2022-11-20T17:56:01;4.90;99.90
6377;DHT22;3221;48.858;10.128;2022-11-20T17:58:47;4.80;99.90